Time;durP1;ratioP1;P1;durP2;ratioP2;P2;SDS_P1;SDS_P2;PMS_P1;PMS_P2;Temp;Humidity;BMP_temperature;BMP_pressure;BME280_temperature;BME280_humidity;BME280_pressure;Samples;Min_cycle;Max_cycle;Signal;HPM_P1;HPM_P2
2021/03/23 00:00:59;;;;;;;;;;;7.70;82.30;;;;;;4391164;32;20015;-73
2021/03/23 00:03:36;;;;;;;;;;;7.60;82.30;;;;;;4378103;32;40348;-73
2021/03/23 00:06:12;;;;;;;;;;;7.60;82.30;;;;;;4392451;32;20008;-73
2021/03/23 00:08:48;;;;;;;;;;;7.70;82.30;;;;;;4378690;32;20368;-73
2021/03/23 00:11:23;;;;;;;;;;;7.60;82.20;;;;;;4378306;32;19992;-73
2021/03/23 00:14:05;;;;;;;;;;;7.70;82.20;;;;;;4378806;32;20052;-73
2021/03/23 00:16:40;;;;;;;;;;;7.60;82.30;;;;;;4391255;32;20326;-73
2021/03/23 00:19:14;;;;;;;;;;;7.60;82.10;;;;;;4378500;32;20392;-73
2021/03/23 00:21:44;;;;;;;;;;;7.60;82.00;;;;;;4391009;32;20445;-74
2021/03/23 00:24:16;;;;;;;;;;;7.60;82.10;;;;;;4390364;32;20038;-73
2021/03/23 00:26:49;;;;;;;;;;;7.60;82.00;;;;;;4391973;32;20421;-73
2021/03/23 00:29:21;;;;;;;;;;;7.60;81.80;;;;;;4390980;32;20008;-73
2021/03/23 00:31:56;;;;;;;;;;;7.60;81.80;;;;;;4378151;32;20017;-74
2021/03/23 00:34:34;;;;;;;;;;;7.60;81.80;;;;;;4378452;32;20353;-74
2021/03/23 00:37:01;;;;;;;;;;;7.60;81.80;;;;;;4376860;32;39373;-73
2021/03/23 00:39:34;;;;;;;;;;;7.60;81.70;;;;;;4391705;32;20071;-73
2021/03/23 00:42:15;;;;;;;;;;;7.60;81.60;;;;;;4378265;32;20004;-74
2021/03/23 00:44:45;;;;;;;;;;;7.60;81.70;;;;;;4391059;32;32105;-74
2021/03/23 00:47:23;;;;;;;;;;;7.60;81.70;;;;;;4378398;32;20322;-74
2021/03/23 00:49:58;;;;;;;;;;;7.60;81.60;;;;;;4390365;32;20011;-74
2021/03/23 00:52:33;;;;;;;;;;;7.60;81.50;;;;;;4390755;32;20063;-74
2021/03/23 00:55:06;;;;;;;;;;;7.60;81.50;;;;;;4388746;32;44673;-74
2021/03/23 00:57:38;;;;;;;;;;;7.60;81.70;;;;;;4376793;32;26568;-74
2021/03/23 01:00:10;;;;;;;;;;;7.50;81.80;;;;;;4389616;32;38238;-74
2021/03/23 01:02:50;;;;;;;;;;;7.60;81.80;;;;;;4389991;32;20008;-74
2021/03/23 01:05:23;;;;;;;;;;;7.60;81.70;;;;;;4389915;32;28829;-74
2021/03/23 01:07:56;;;;;;;;;;;7.50;82.50;;;;;;4391534;32;20502;-74
2021/03/23 01:10:27;;;;;;;;;;;7.60;81.70;;;;;;4390801;32;31129;-74
2021/03/23 01:13:02;;;;;;;;;;;7.60;81.70;;;;;;4389599;32;23737;-74
2021/03/23 01:15:40;;;;;;;;;;;7.60;81.90;;;;;;4377919;32;20067;-74
2021/03/23 01:18:10;;;;;;;;;;;7.50;81.90;;;;;;4390367;32;37191;-74
2021/03/23 01:20:43;;;;;;;;;;;7.50;81.90;;;;;;4390351;32;20063;-74
2021/03/23 01:23:21;;;;;;;;;;;7.60;82.00;;;;;;4391507;32;20008;-74
2021/03/23 01:25:56;;;;;;;;;;;7.60;81.80;;;;;;4389104;32;39627;-74
2021/03/23 01:28:28;;;;;;;;;;;7.50;81.80;;;;;;4376672;32;39589;-74
2021/03/23 01:30:58;;;;;;;;;;;7.60;82.00;;;;;;4389613;32;22417;-74
2021/03/23 01:33:31;;;;;;;;;;;7.50;81.90;;;;;;4390068;32;20016;-73
2021/03/23 01:36:01;;;;;;;;;;;7.50;82.10;;;;;;4389529;32;35819;-73
2021/03/23 01:38:36;;;;;;;;;;;7.50;82.10;;;;;;4390304;32;20012;-73
2021/03/23 01:41:08;;;;;;;;;;;7.50;82.20;;;;;;4388743;32;43218;-73
2021/03/23 01:43:40;;;;;;;;;;;7.50;82.20;;;;;;4376907;32;32298;-73
2021/03/23 01:46:26;;;;;;;;;;;7.40;82.20;;;;;;4391328;32;20014;-73
2021/03/23 01:49:03;;;;;;;;;;;7.50;82.30;;;;;;4389669;32;20020;-74
2021/03/23 01:51:43;;;;;;;;;;;7.50;82.40;;;;;;4377417;32;20007;-73
2021/03/23 01:54:27;;;;;;;;;;;7.50;82.40;;;;;;4390492;32;20012;-73
2021/03/23 01:57:06;;;;;;;;;;;7.40;82.40;;;;;;4377708;32;20067;-73
2021/03/23 01:59:41;;;;;;;;;;;7.50;82.60;;;;;;4388992;32;40251;-74
2021/03/23 02:02:14;;;;;;;;;;;7.50;82.70;;;;;;4388521;32;43299;-74
2021/03/23 02:04:49;;;;;;;;;;;7.40;82.70;;;;;;4389957;32;20012;-73
2021/03/23 02:07:21;;;;;;;;;;;7.50;82.80;;;;;;4390166;32;38162;-74
2021/03/23 02:09:51;;;;;;;;;;;7.40;82.80;;;;;;4391227;32;44860;-73
2021/03/23 02:12:27;;;;;;;;;;;7.50;83.00;;;;;;4392839;32;20064;-74
2021/03/23 02:14:59;;;;;;;;;;;7.40;83.00;;;;;;4380196;32;20006;-73
2021/03/23 02:17:34;;;;;;;;;;;7.40;83.10;;;;;;4392103;32;20035;-73
2021/03/23 02:20:15;;;;;;;;;;;7.40;83.30;;;;;;4392780;32;36709;-73
2021/03/23 02:22:49;;;;;;;;;;;7.40;83.30;;;;;;4378649;32;46866;-73
2021/03/23 02:25:25;;;;;;;;;;;7.40;83.40;;;;;;4392750;32;20008;-74
2021/03/23 02:28:00;;;;;;;;;;;7.40;83.50;;;;;;4393425;32;20004;-73
2021/03/23 02:30:42;;;;;;;;;;;7.30;83.50;;;;;;4379916;32;20378;-73
2021/03/23 02:33:15;;;;;;;;;;;7.30;83.60;;;;;;4392455;32;20352;-74
2021/03/23 02:35:48;;;;;;;;;;;7.30;83.80;;;;;;4392633;32;44331;-73
2021/03/23 02:38:21;;;;;;;;;;;7.30;83.80;;;;;;4378737;32;34016;-73
2021/03/23 02:40:50;;;;;;;;;;;7.30;83.80;;;;;;4379807;32;20063;-74
2021/03/23 02:43:25;;;;;;;;;;;7.30;83.90;;;;;;4392475;32;20011;-73
2021/03/23 02:46:01;;;;;;;;;;;7.30;84.00;;;;;;4391504;32;31568;-74
2021/03/23 02:48:31;;;;;;;;;;;7.30;84.00;;;;;;4391371;32;39830;-73
2021/03/23 02:51:04;;;;;;;;;;;7.20;84.00;;;;;;4390651;32;44890;-73
2021/03/23 02:53:44;;;;;;;;;;;7.20;84.00;;;;;;4379805;32;20048;-73
2021/03/23 02:56:19;;;;;;;;;;;7.20;84.10;;;;;;4390900;32;44088;-73
2021/03/23 02:58:49;;;;;;;;;;;7.20;84.30;;;;;;4391103;32;38099;-73
2021/03/23 03:01:23;;;;;;;;;;;7.20;84.40;;;;;;4392988;32;20038;-74
2021/03/23 03:03:59;;;;;;;;;;;7.20;84.40;;;;;;4379236;32;20389;-73
2021/03/23 03:06:35;;;;;;;;;;;7.20;84.40;;;;;;4378988;32;34288;-73
2021/03/23 03:09:08;;;;;;;;;;;7.20;84.40;;;;;;4379367;32;20412;-73
2021/03/23 03:11:43;;;;;;;;;;;7.20;84.40;;;;;;4392261;32;20063;-73
2021/03/23 03:14:13;;;;;;;;;;;7.20;84.60;;;;;;4391314;32;25754;-73
2021/03/23 03:16:43;;;;;;;;;;;7.10;85.40;;;;;;4391834;32;20023;-73
2021/03/23 03:19:16;;;;;;;;;;;7.20;84.80;;;;;;4393002;32;20008;-74
2021/03/23 03:21:52;;;;;;;;;;;7.10;84.60;;;;;;4391712;32;20068;-73
2021/03/23 03:24:27;;;;;;;;;;;7.10;84.70;;;;;;4379355;32;20048;-73
2021/03/23 03:26:59;;;;;;;;;;;7.10;84.80;;;;;;4391773;32;40715;-73
2021/03/23 03:29:37;;;;;;;;;;;7.10;84.80;;;;;;4392636;32;20016;-73
2021/03/23 03:32:09;;;;;;;;;;;7.10;84.80;;;;;;4377976;32;37132;-74
2021/03/23 03:34:41;;;;;;;;;;;7.10;84.70;;;;;;4391486;32;36616;-73
2021/03/23 03:37:13;;;;;;;;;;;7.10;84.70;;;;;;4390023;32;42170;-73
2021/03/23 03:39:43;;;;;;;;;;;7.10;84.80;;;;;;4391738;32;20037;-73
2021/03/23 03:42:21;;;;;;;;;;;7.20;85.00;;;;;;4379004;32;20043;-74
2021/03/23 03:44:53;;;;;;;;;;;7.10;85.00;;;;;;4377457;32;42246;-74
2021/03/23 03:47:28;;;;;;;;;;;7.10;85.00;;;;;;4390416;32;43541;-73
2021/03/23 03:50:04;;;;;;;;;;;7.10;85.10;;;;;;4390153;32;43556;-74
2021/03/23 03:52:37;;;;;;;;;;;7.10;85.20;;;;;;4390301;32;41735;-73
2021/03/23 03:55:06;;;;;;;;;;;7.10;85.20;;;;;;4391449;32;35375;-73
2021/03/23 03:57:41;;;;;;;;;;;7.10;85.30;;;;;;4378959;32;20400;-73
2021/03/23 04:00:21;;;;;;;;;;;7.10;85.30;;;;;;4392415;32;20068;-73
2021/03/23 04:02:53;;;;;;;;;;;7.10;85.40;;;;;;4389974;32;34087;-73
2021/03/23 04:05:30;;;;;;;;;;;7.10;85.30;;;;;;4391276;32;20516;-73
2021/03/23 04:08:06;;;;;;;;;;;7.10;85.50;;;;;;4390231;32;35194;-74
2021/03/23 04:10:35;;;;;;;;;;;7.10;85.60;;;;;;4390184;32;36445;-73
2021/03/23 04:13:08;;;;;;;;;;;7.10;85.60;;;;;;4390646;32;20019;-73
2021/03/23 04:15:42;;;;;;;;;;;7.10;85.50;;;;;;4392118;32;20385;-74
2021/03/23 04:18:13;;;;;;;;;;;7.10;85.50;;;;;;4391301;32;20023;-73
2021/03/23 04:20:50;;;;;;;;;;;7.10;85.40;;;;;;4391065;32;20423;-73
2021/03/23 04:23:23;;;;;;;;;;;7.10;85.50;;;;;;4392136;32;20016;-74
2021/03/23 04:26:02;;;;;;;;;;;7.10;85.40;;;;;;4391043;32;20009;-73
2021/03/23 04:28:36;;;;;;;;;;;7.10;85.40;;;;;;4378418;32;20011;-73
2021/03/23 04:31:10;;;;;;;;;;;7.10;85.40;;;;;;4390919;32;20051;-73
2021/03/23 04:33:45;;;;;;;;;;;7.10;85.50;;;;;;4377855;32;20098;-73
2021/03/23 04:36:15;;;;;;;;;;;7.10;85.50;;;;;;4390542;32;38117;-73
2021/03/23 04:38:45;;;;;;;;;;;7.10;85.60;;;;;;4391528;32;20016;-73
2021/03/23 04:41:19;;;;;;;;;;;7.10;85.60;;;;;;4391482;32;20031;-74
2021/03/23 04:43:52;;;;;;;;;;;7.00;85.50;;;;;;4389751;32;34765;-73
2021/03/23 04:46:23;;;;;;;;;;;7.00;85.50;;;;;;4376472;32;44196;-73
2021/03/23 04:48:53;;;;;;;;;;;7.00;85.60;;;;;;4389498;32;42378;-74
2021/03/23 04:51:27;;;;;;;;;;;7.00;85.60;;;;;;4391727;32;20008;-73
2021/03/23 04:54:03;;;;;;;;;;;7.00;85.60;;;;;;4389168;32;43679;-73
2021/03/23 04:56:39;;;;;;;;;;;7.00;85.70;;;;;;4390536;32;20030;-73
2021/03/23 04:59:15;;;;;;;;;;;6.90;85.60;;;;;;4390516;32;20009;-73
2021/03/23 05:01:47;;;;;;;;;;;6.90;85.80;;;;;;4389995;32;20018;-74
2021/03/23 05:04:22;;;;;;;;;;;6.90;85.70;;;;;;4378086;32;20016;-74
2021/03/23 05:06:59;;;;;;;;;;;6.90;85.70;;;;;;4390311;32;39949;-73
2021/03/23 05:09:32;;;;;;;;;;;6.90;85.70;;;;;;4391566;32;20013;-74
2021/03/23 05:12:04;;;;;;;;;;;6.90;85.70;;;;;;4391316;32;20059;-73
2021/03/23 05:14:39;;;;;;;;;;;6.90;85.80;;;;;;4378410;32;20364;-74
2021/03/23 05:17:18;;;;;;;;;;;6.90;85.80;;;;;;4391439;32;20086;-74
2021/03/23 05:19:54;;;;;;;;;;;6.80;85.70;;;;;;4376804;32;39008;-73
2021/03/23 05:22:26;;;;;;;;;;;6.90;85.90;;;;;;4389124;32;42995;-73
2021/03/23 05:25:02;;;;;;;;;;;6.80;85.80;;;;;;4390357;32;20043;-74
2021/03/23 05:27:34;;;;;;;;;;;6.90;85.80;;;;;;4377773;32;19997;-74
2021/03/23 05:30:09;;;;;;;;;;;6.90;85.80;;;;;;4376440;32;39827;-74
2021/03/23 05:32:42;;;;;;;;;;;6.90;85.80;;;;;;4389306;32;35132;-74
2021/03/23 05:35:12;;;;;;;;;;;6.80;85.80;;;;;;4389695;32;20012;-73
2021/03/23 05:37:55;;;;;;;;;;;6.80;85.90;;;;;;4389472;32;26052;-74
2021/03/23 05:40:29;;;;;;;;;;;6.80;85.90;;;;;;4388961;32;44338;-74
2021/03/23 05:43:15;;;;;;;;;;;6.80;85.80;;;;;;4391422;32;20063;-74
2021/03/23 05:45:52;;;;;;;;;;;6.80;85.80;;;;;;4392857;32;20802;-74
2021/03/23 05:48:31;;;;;;;;;;;6.80;85.80;;;;;;4380185;32;19993;-74
2021/03/23 05:51:10;;;;;;;;;;;6.80;85.70;;;;;;4393309;32;20060;-74
2021/03/23 05:53:58;;;;;;;;;;;6.80;85.70;;;;;;4394257;32;20007;-74
2021/03/23 05:56:36;;;;;;;;;;;6.80;85.70;;;;;;4394010;32;20023;-74
2021/03/23 05:59:26;;;;;;;;;;;6.80;85.70;;;;;;4393096;32;20016;-74
2021/03/23 06:01:59;;;;;;;;;;;6.80;85.80;;;;;;4385272;32;43643;-73
2021/03/23 06:04:33;;;;;;;;;;;6.80;85.80;;;;;;4391690;32;42228;-74
2021/03/23 06:07:07;;;;;;;;;;;6.80;85.70;;;;;;4392745;32;43317;-73
2021/03/23 06:09:44;;;;;;;;;;;6.80;85.80;;;;;;4394170;32;20008;-73
2021/03/23 06:12:27;;;;;;;;;;;6.80;85.80;;;;;;4392503;32;43834;-74
2021/03/23 06:15:13;;;;;;;;;;;6.80;85.80;;;;;;4393881;32;20012;-73
2021/03/23 06:18:05;;;;;;;;;;;6.80;85.80;;;;;;4380314;32;19996;-73
2021/03/23 06:20:50;;;;;;;;;;;6.80;85.80;;;;;;4378874;32;43535;-73
2021/03/23 06:23:35;;;;;;;;;;;6.80;85.90;;;;;;4392476;32;44383;-74
2021/03/23 06:26:14;;;;;;;;;;;6.70;85.80;;;;;;4379729;32;19993;-73
2021/03/23 06:29:06;;;;;;;;;;;6.70;85.90;;;;;;4380411;32;20001;-73
2021/03/23 06:31:51;;;;;;;;;;;6.70;85.90;;;;;;4393049;32;20018;-74
2021/03/23 06:34:32;;;;;;;;;;;6.70;86.00;;;;;;4392069;32;20016;-73
2021/03/23 06:37:22;;;;;;;;;;;6.70;86.00;;;;;;4393589;32;20004;-74
2021/03/23 06:39:55;;;;;;;;;;;6.70;86.00;;;;;;4379330;32;20004;-74
2021/03/23 06:42:30;;;;;;;;;;;6.70;86.00;;;;;;4391019;32;43411;-74
2021/03/23 06:45:09;;;;;;;;;;;6.80;86.00;;;;;;4392964;32;20019;-74
2021/03/23 06:47:44;;;;;;;;;;;6.80;86.00;;;;;;4391959;32;20405;-73
2021/03/23 06:50:17;;;;;;;;;;;6.80;86.00;;;;;;4392393;32;20035;-73
2021/03/23 06:53:09;;;;;;;;;;;6.80;86.00;;;;;;4379819;32;20079;-74
2021/03/23 06:55:53;;;;;;;;;;;6.80;86.00;;;;;;4391527;32;20012;-74
2021/03/23 06:58:32;;;;;;;;;;;6.80;86.10;;;;;;4392283;32;20018;-73
2021/03/23 07:01:08;;;;;;;;;;;6.80;86.10;;;;;;4392227;32;20058;-74
2021/03/23 07:03:41;;;;;;;;;;;6.80;86.10;;;;;;4391824;32;20004;-73
2021/03/23 07:06:49;;;;;;;;;;;6.80;86.00;;;;;;4392156;32;20040;-74
2021/03/23 07:09:27;;;;;;;;;;;6.80;86.00;;;;;;4379486;32;20402;-73
2021/03/23 07:12:06;;;;;;;;;;;6.80;86.00;;;;;;4393155;32;20071;-74
2021/03/23 07:14:44;;;;;;;;;;;6.90;86.00;;;;;;4392953;32;20039;-73
2021/03/23 07:17:12;;;;;;;;;;;6.80;86.10;;;;;;4391531;32;20003;-74
2021/03/23 07:19:52;;;;;;;;;;;6.80;86.10;;;;;;4391967;32;20008;-74
2021/03/23 07:22:25;;;;;;;;;;;6.80;86.10;;;;;;4392139;32;20035;-74
2021/03/23 07:25:03;;;;;;;;;;;6.80;86.20;;;;;;4391792;32;20075;-73
2021/03/23 07:27:41;;;;;;;;;;;6.80;86.20;;;;;;4392699;32;20036;-74
2021/03/23 07:30:23;;;;;;;;;;;6.80;86.30;;;;;;4391556;32;20071;-73
2021/03/23 07:32:56;;;;;;;;;;;6.80;86.30;;;;;;4391555;32;20435;-73
2021/03/23 07:35:33;;;;;;;;;;;6.90;86.30;;;;;;4378827;32;20027;-74
2021/03/23 07:38:22;;;;;;;;;;;6.90;86.30;;;;;;4379624;32;19992;-73
2021/03/23 07:41:05;;;;;;;;;;;6.90;86.20;;;;;;4391383;32;20008;-74
2021/03/23 07:43:41;;;;;;;;;;;6.90;86.20;;;;;;4391532;32;20031;-73
2021/03/23 07:46:13;;;;;;;;;;;6.90;86.20;;;;;;4391827;32;33823;-73
2021/03/23 07:48:50;;;;;;;;;;;6.90;86.10;;;;;;4391256;32;20000;-73
2021/03/23 07:51:35;;;;;;;;;;;7.00;86.20;;;;;;4379435;32;19989;-73
2021/03/23 07:54:27;;;;;;;;;;;6.90;86.10;;;;;;4391422;32;20024;-73
2021/03/23 07:57:17;;;;;;;;;;;7.00;86.10;;;;;;4391481;32;20386;-73
2021/03/23 07:59:57;;;;;;;;;;;7.00;86.00;;;;;;4391484;32;20051;-74
2021/03/23 08:02:39;;;;;;;;;;;7.00;86.00;;;;;;4378922;32;20004;-74
2021/03/23 08:05:09;;;;;;;;;;;7.00;86.00;;;;;;4390800;32;20442;-73
2021/03/23 08:07:55;;;;;;;;;;;7.00;86.00;;;;;;4390534;32;20398;-74
2021/03/23 08:10:48;;;;;;;;;;;7.10;85.90;;;;;;4391205;32;20004;-73
2021/03/23 08:13:33;;;;;;;;;;;7.10;86.00;;;;;;4392348;32;20465;-73
2021/03/23 08:16:08;;;;;;;;;;;7.10;86.00;;;;;;4391084;32;20008;-74
2021/03/23 08:18:56;;;;;;;;;;;7.10;85.80;;;;;;4391343;32;20406;-73
2021/03/23 08:21:44;;;;;;;;;;;7.10;85.70;;;;;;4378735;32;20420;-74
2021/03/23 08:24:40;;;;;;;;;;;7.10;85.80;;;;;;4378352;32;20401;-73
2021/03/23 08:27:22;;;;;;;;;;;7.10;85.80;;;;;;4390756;32;20509;-73
2021/03/23 08:30:08;;;;;;;;;;;7.10;85.80;;;;;;4391214;32;20023;-73
2021/03/23 08:32:59;;;;;;;;;;;7.20;85.90;;;;;;4390992;32;20427;-74
2021/03/23 08:35:44;;;;;;;;;;;7.20;85.90;;;;;;4378249;32;20000;-73
2021/03/23 08:38:29;;;;;;;;;;;7.20;85.90;;;;;;4378453;32;20383;-73
2021/03/23 08:41:16;;;;;;;;;;;7.20;85.80;;;;;;4390887;32;20444;-73
2021/03/23 08:43:51;;;;;;;;;;;7.20;85.80;;;;;;4390726;32;20013;-74
2021/03/23 08:46:36;;;;;;;;;;;7.30;85.80;;;;;;4390907;32;20399;-73
2021/03/23 08:49:16;;;;;;;;;;;7.30;85.70;;;;;;4377817;32;20465;-73
2021/03/23 08:51:49;;;;;;;;;;;7.30;85.60;;;;;;4391737;32;20037;-73
2021/03/23 08:54:56;;;;;;;;;;;7.30;85.70;;;;;;4392125;32;20008;-73
2021/03/23 08:57:48;;;;;;;;;;;7.30;85.70;;;;;;4332908;33;20140;-74
2021/03/23 09:00:33;;;;;;;;;;;7.30;85.70;;;;;;4391936;32;20419;-74
2021/03/23 09:03:20;;;;;;;;;;;7.30;85.70;;;;;;4377303;32;20439;-73
2021/03/23 09:06:05;;;;;;;;;;;7.30;85.70;;;;;;4379762;32;20470;-73
2021/03/23 09:08:42;;;;;;;;;;;7.40;85.80;;;;;;4392063;32;20393;-74
2021/03/23 09:11:29;;;;;;;;;;;7.40;85.80;;;;;;4378014;32;20000;-73
2021/03/23 09:14:17;;;;;;;;;;;7.40;85.70;;;;;;4391351;32;20080;-74
2021/03/23 09:16:58;;;;;;;;;;;7.40;85.60;;;;;;4390072;32;19992;-74
2021/03/23 09:19:48;;;;;;;;;;;7.50;85.70;;;;;;4377444;32;20010;-74
2021/03/23 09:22:36;;;;;;;;;;;7.50;85.70;;;;;;4391430;32;20003;-74
2021/03/23 09:25:40;;;;;;;;;;;7.50;85.70;;;;;;4390240;32;20001;-74
2021/03/23 09:28:12;;;;;;;;;;;7.50;85.80;;;;;;4389758;32;20115;-74
2021/03/23 09:31:03;;;;;;;;;;;7.50;85.80;;;;;;4378518;32;20008;-74
2021/03/23 09:33:37;;;;;;;;;;;7.50;85.80;;;;;;4390283;32;20453;-74
2021/03/23 09:36:18;;;;;;;;;;;7.60;85.70;;;;;;4390378;32;20042;-74
2021/03/23 09:38:51;;;;;;;;;;;7.50;85.80;;;;;;4389560;32;21548;-73
2021/03/23 09:41:26;;;;;;;;;;;7.60;85.80;;;;;;4377807;32;20000;-74
2021/03/23 09:44:14;;;;;;;;;;;7.60;85.80;;;;;;4389736;32;20019;-74
2021/03/23 09:46:44;;;;;;;;;;;7.60;85.80;;;;;;4366400;32;39233;-74
2021/03/23 09:49:18;;;;;;;;;;;7.70;85.80;;;;;;4376438;32;34015;-74
2021/03/23 09:52:06;;;;;;;;;;;7.70;85.80;;;;;;4389960;32;19997;-74
2021/03/23 09:54:59;;;;;;;;;;;7.70;85.80;;;;;;4390364;32;20022;-74
2021/03/23 09:57:36;;;;;;;;;;;7.70;85.70;;;;;;4390212;32;32147;-74
2021/03/23 10:00:28;;;;;;;;;;;7.80;85.70;;;;;;4378034;32;32466;-74
2021/03/23 10:03:01;;;;;;;;;;;7.80;85.60;;;;;;4389925;32;27357;-74
2021/03/23 10:05:31;;;;;;;;;;;7.80;85.60;;;;;;4390096;32;20150;-74
2021/03/23 10:08:17;;;;;;;;;;;7.80;85.70;;;;;;4390047;32;20075;-73
2021/03/23 10:10:47;;;;;;;;;;;7.80;85.70;;;;;;4390909;32;20016;-73
2021/03/23 10:13:30;;;;;;;;;;;7.90;85.70;;;;;;4378128;32;20078;-74
2021/03/23 10:16:07;;;;;;;;;;;7.90;85.70;;;;;;4391041;32;20005;-73
2021/03/23 10:18:43;;;;;;;;;;;7.90;85.60;;;;;;4376189;32;46170;-73
2021/03/23 10:21:14;;;;;;;;;;;7.90;85.70;;;;;;4388360;32;40703;-73
2021/03/23 10:23:55;;;;;;;;;;;8.00;85.80;;;;;;4391030;32;20400;-74
2021/03/23 10:26:30;;;;;;;;;;;8.00;85.80;;;;;;4389120;32;28952;-74
2021/03/23 10:29:18;;;;;;;;;;;8.00;86.50;;;;;;4389897;32;20056;-74
2021/03/23 10:31:56;;;;;;;;;;;8.00;85.70;;;;;;4391198;32;20063;-73
2021/03/23 10:34:34;;;;;;;;;;;8.10;85.70;;;;;;4392922;32;27472;-74
2021/03/23 10:37:08;;;;;;;;;;;8.10;86.40;;;;;;4378730;32;36670;-74
2021/03/23 10:39:44;;;;;;;;;;;8.10;85.60;;;;;;4392489;32;20012;-73
2021/03/23 10:42:36;;;;;;;;;;;8.10;85.40;;;;;;4391755;32;30043;-73
2021/03/23 10:45:24;;;;;;;;;;;8.10;85.40;;;;;;4391378;32;37177;-73
2021/03/23 10:48:10;;;;;;;;;;;8.20;85.60;;;;;;4392711;32;20022;-74
2021/03/23 10:50:44;;;;;;;;;;;8.20;85.50;;;;;;4382078;32;20104;-73
2021/03/23 10:53:25;;;;;;;;;;;8.20;85.40;;;;;;4393417;32;20040;-73
2021/03/23 10:56:01;;;;;;;;;;;8.30;85.30;;;;;;4392434;32;20078;-73
2021/03/23 10:58:40;;;;;;;;;;;8.30;85.20;;;;;;4392338;32;20012;-73
2021/03/23 11:01:20;;;;;;;;;;;8.30;85.10;;;;;;4379954;32;20047;-73
2021/03/23 11:04:09;;;;;;;;;;;8.30;85.00;;;;;;4392071;32;19996;-73
2021/03/23 11:06:50;;;;;;;;;;;8.30;85.00;;;;;;4380102;32;20004;-74
2021/03/23 11:09:26;;;;;;;;;;;8.30;84.90;;;;;;4391821;32;20527;-73
2021/03/23 11:12:06;;;;;;;;;;;8.40;85.00;;;;;;4392155;32;20131;-74
2021/03/23 11:14:42;;;;;;;;;;;8.40;84.80;;;;;;4379548;32;20015;-73
2021/03/23 11:17:21;;;;;;;;;;;8.50;84.90;;;;;;4391839;32;20022;-73
2021/03/23 11:20:05;;;;;;;;;;;8.50;85.00;;;;;;4392053;32;20059;-73
2021/03/23 11:22:41;;;;;;;;;;;8.50;85.10;;;;;;4391982;32;20038;-73
2021/03/23 11:25:19;;;;;;;;;;;8.60;85.00;;;;;;4392001;32;19997;-73
2021/03/23 11:27:58;;;;;;;;;;;8.70;85.00;;;;;;4379509;32;20048;-73
2021/03/23 11:30:33;;;;;;;;;;;8.70;84.70;;;;;;4392946;32;20016;-73
2021/03/23 11:33:16;;;;;;;;;;;8.70;84.80;;;;;;4378995;32;20000;-74
2021/03/23 11:35:52;;;;;;;;;;;8.80;84.90;;;;;;4391821;32;20004;-73
2021/03/23 11:38:29;;;;;;;;;;;8.90;84.60;;;;;;4391520;32;20064;-73
2021/03/23 11:41:08;;;;;;;;;;;8.90;84.40;;;;;;4391495;32;20019;-73
2021/03/23 11:43:48;;;;;;;;;;;8.90;84.30;;;;;;4391212;32;20011;-74
2021/03/23 11:46:42;;;;;;;;;;;9.00;84.40;;;;;;4392607;32;20004;-73
2021/03/23 11:49:33;;;;;;;;;;;9.00;84.20;;;;;;4372765;32;20356;-74
2021/03/23 11:52:05;;;;;;;;;;;9.00;84.20;;;;;;4391569;32;20051;-73
2021/03/23 11:54:43;;;;;;;;;;;9.10;84.20;;;;;;4392463;32;20004;-73
2021/03/23 11:57:16;;;;;;;;;;;9.10;84.10;;;;;;4391154;32;20042;-73
2021/03/23 11:59:54;;;;;;;;;;;9.10;84.00;;;;;;4390942;32;20001;-74
2021/03/23 12:02:30;;;;;;;;;;;9.20;84.10;;;;;;4378484;32;20064;-73
2021/03/23 12:05:03;;;;;;;;;;;9.20;84.00;;;;;;4392204;32;20041;-73
2021/03/23 12:07:56;;;;;;;;;;;9.30;84.10;;;;;;4392134;32;20005;-73
2021/03/23 12:10:42;;;;;;;;;;;9.30;83.90;;;;;;4392289;32;20047;-74
2021/03/23 12:13:21;;;;;;;;;;;9.30;83.90;;;;;;4390752;32;20026;-74
2021/03/23 12:15:56;;;;;;;;;;;9.30;83.90;;;;;;4390552;32;20001;-73
2021/03/23 12:18:25;;;;;;;;;;;9.30;83.70;;;;;;4391201;32;20014;-73
2021/03/23 12:21:08;;;;;;;;;;;9.40;83.70;;;;;;4391315;32;20046;-74
2021/03/23 12:23:40;;;;;;;;;;;9.40;83.70;;;;;;4391096;32;20366;-74
2021/03/23 12:26:07;;;;;;;;;;;9.40;83.70;;;;;;4377985;32;20011;-74
2021/03/23 12:28:41;;;;;;;;;;;9.40;83.70;;;;;;4390796;32;20060;-73
2021/03/23 12:31:16;;;;;;;;;;;9.50;83.90;;;;;;4378147;32;20389;-73
2021/03/23 12:33:50;;;;;;;;;;;9.50;83.60;;;;;;4390894;32;20022;-73
2021/03/23 12:36:20;;;;;;;;;;;9.50;83.60;;;;;;4378484;32;20005;-73
2021/03/23 12:38:51;;;;;;;;;;;9.50;83.40;;;;;;4390242;32;20019;-73
2021/03/23 12:41:29;;;;;;;;;;;9.60;83.70;;;;;;4391968;32;20126;-73
2021/03/23 12:44:03;;;;;;;;;;;9.60;83.60;;;;;;4391863;32;20008;-74
2021/03/23 12:46:35;;;;;;;;;;;9.70;83.90;;;;;;4390458;32;20011;-73
2021/03/23 12:49:08;;;;;;;;;;;9.80;83.40;;;;;;4391620;32;20057;-73
2021/03/23 12:51:49;;;;;;;;;;;9.80;83.30;;;;;;4391820;32;20009;-74
2021/03/23 12:54:26;;;;;;;;;;;9.80;83.40;;;;;;4390680;32;20038;-74
2021/03/23 12:57:13;;;;;;;;;;;9.90;83.60;;;;;;4390480;32;20089;-74
2021/03/23 12:59:44;;;;;;;;;;;9.90;83.40;;;;;;4378159;32;20345;-73
2021/03/23 13:02:14;;;;;;;;;;;9.90;83.40;;;;;;4387913;32;20053;-74
2021/03/23 13:04:46;;;;;;;;;;;10.00;83.20;;;;;;4405020;32;20011;-73
2021/03/23 13:07:28;;;;;;;;;;;10.00;84.10;;;;;;4393793;32;19999;-74
2021/03/23 13:10:06;;;;;;;;;;;10.00;83.20;;;;;;4393468;32;20041;-74
2021/03/23 13:12:40;;;;;;;;;;;10.10;82.90;;;;;;4406472;32;20019;-74
2021/03/23 13:15:18;;;;;;;;;;;10.10;83.30;;;;;;4393984;32;20093;-74
2021/03/23 13:18:01;;;;;;;;;;;10.20;82.90;;;;;;4406275;32;20018;-74
2021/03/23 13:20:45;;;;;;;;;;;10.20;83.00;;;;;;4406393;32;20015;-74
2021/03/23 13:23:43;;;;;;;;;;;10.20;83.10;;;;;;4393633;32;20011;-74
2021/03/23 13:26:28;;;;;;;;;;;10.30;83.00;;;;;;4405990;32;20007;-74
2021/03/23 13:29:09;;;;;;;;;;;10.40;83.00;;;;;;4406194;32;20015;-74
2021/03/23 13:31:47;;;;;;;;;;;10.40;83.00;;;;;;4406254;32;20007;-74
2021/03/23 13:34:27;;;;;;;;;;;10.50;82.80;;;;;;4393290;32;20041;-74
2021/03/23 13:37:05;;;;;;;;;;;10.50;82.90;;;;;;4393290;32;20035;-74
2021/03/23 13:39:46;;;;;;;;;;;10.50;82.90;;;;;;4393393;32;20023;-74
2021/03/23 13:42:24;;;;;;;;;;;10.60;82.50;;;;;;4392504;32;20025;-74
2021/03/23 13:45:05;;;;;;;;;;;10.60;82.40;;;;;;4393143;32;20094;-73
2021/03/23 13:47:48;;;;;;;;;;;10.70;82.40;;;;;;4406117;32;20539;-73
2021/03/23 13:50:33;;;;;;;;;;;10.70;82.40;;;;;;4381806;32;20384;-74
2021/03/23 13:53:12;;;;;;;;;;;10.70;82.40;;;;;;4378136;32;20442;-74
2021/03/23 13:55:54;;;;;;;;;;;10.70;82.30;;;;;;4378200;32;20035;-73
2021/03/23 13:58:32;;;;;;;;;;;10.70;82.10;;;;;;4391042;32;20000;-73
2021/03/23 14:01:15;;;;;;;;;;;10.70;82.40;;;;;;4391121;32;20015;-74
2021/03/23 14:03:42;;;;;;;;;;;10.80;82.50;;;;;;4389367;32;20039;-74
2021/03/23 14:06:16;;;;;;;;;;;10.80;82.10;;;;;;4377439;32;20008;-73
2021/03/23 14:08:48;;;;;;;;;;;10.80;82.30;;;;;;4367946;32;20006;-73
2021/03/23 14:11:24;;;;;;;;;;;10.90;82.50;;;;;;4367812;32;20029;-73
2021/03/23 14:14:02;;;;;;;;;;;10.90;82.40;;;;;;4381242;32;19996;-73
2021/03/23 14:16:40;;;;;;;;;;;10.90;82.30;;;;;;4393516;32;20014;-73
2021/03/23 14:19:19;;;;;;;;;;;10.90;82.40;;;;;;4381772;32;20007;-73
2021/03/23 14:22:07;;;;;;;;;;;10.90;82.00;;;;;;4393297;32;20073;-73
2021/03/23 14:24:50;;;;;;;;;;;10.90;82.10;;;;;;4393326;32;20011;-74
2021/03/23 14:27:34;;;;;;;;;;;11.00;82.40;;;;;;4381372;32;20427;-73
2021/03/23 14:30:21;;;;;;;;;;;11.00;82.30;;;;;;4393585;32;20001;-73
2021/03/23 14:33:04;;;;;;;;;;;11.00;82.20;;;;;;4381018;32;20127;-73
2021/03/23 14:35:49;;;;;;;;;;;11.10;82.00;;;;;;4393024;32;20383;-73
2021/03/23 14:38:36;;;;;;;;;;;11.10;81.90;;;;;;4393460;32;20062;-73
2021/03/23 14:41:26;;;;;;;;;;;11.10;82.10;;;;;;4381194;32;20014;-73
2021/03/23 14:44:00;;;;;;;;;;;11.10;82.00;;;;;;4379856;32;20027;-73
2021/03/23 14:46:32;;;;;;;;;;;11.20;82.00;;;;;;4393409;32;20057;-74
2021/03/23 14:49:11;;;;;;;;;;;11.20;81.90;;;;;;4380600;32;20094;-74
2021/03/23 14:51:56;;;;;;;;;;;11.20;81.80;;;;;;4380987;32;20014;-73
2021/03/23 14:54:40;;;;;;;;;;;11.20;81.90;;;;;;4392880;32;20075;-73
2021/03/23 14:57:27;;;;;;;;;;;11.20;81.90;;;;;;4392765;32;20063;-73
2021/03/23 15:00:11;;;;;;;;;;;11.30;81.90;;;;;;4392901;32;20066;-73
2021/03/23 15:02:49;;;;;;;;;;;11.30;82.00;;;;;;4380061;32;20019;-73
2021/03/23 15:05:19;;;;;;;;;;;11.30;81.80;;;;;;4393203;32;20004;-73
2021/03/23 15:07:54;;;;;;;;;;;11.40;81.70;;;;;;4377673;32;20015;-73
2021/03/23 15:10:31;;;;;;;;;;;11.30;81.70;;;;;;4389436;32;20039;-74
2021/03/23 15:13:01;;;;;;;;;;;11.30;81.50;;;;;;4390099;32;20034;-74
2021/03/23 15:15:34;;;;;;;;;;;11.40;81.60;;;;;;4390372;32;20115;-73
2021/03/23 15:18:02;;;;;;;;;;;11.40;81.50;;;;;;4376385;32;20314;-74
2021/03/23 15:20:30;;;;;;;;;;;11.40;81.40;;;;;;4390361;32;20066;-73
2021/03/23 15:23:00;;;;;;;;;;;11.40;81.50;;;;;;4375887;32;20007;-73
2021/03/23 15:25:35;;;;;;;;;;;11.40;81.50;;;;;;4377710;32;20397;-73
2021/03/23 15:28:03;;;;;;;;;;;11.40;81.30;;;;;;4376774;32;20008;-74
2021/03/23 15:30:33;;;;;;;;;;;11.50;81.10;;;;;;4377152;32;20444;-73